createdAt,value
2018-04-24T00:01:51.269Z,87.20
2018-04-24T00:04:20.291Z,86.77
2018-04-24T00:06:48.561Z,87.04
2018-04-24T00:09:16.817Z,86.51
2018-04-24T00:11:45.851Z,86.45
2018-04-24T00:14:14.131Z,86.47
2018-04-24T00:16:42.394Z,86.24
2018-04-24T00:19:10.646Z,87.18
2018-04-24T00:21:39.687Z,88.19
2018-04-24T00:24:07.943Z,88.28
2018-04-24T00:26:36.206Z,87.13
2018-04-24T00:29:05.241Z,86.16
2018-04-24T00:31:33.502Z,86.62
2018-04-24T00:34:01.762Z,86.17
2018-04-24T00:36:30.028Z,86.51
2018-04-24T00:38:58.285Z,87.88
2018-04-24T00:41:27.783Z,86.05
2018-04-24T00:43:56.050Z,86.96
2018-04-24T00:46:24.310Z,87.70
2018-04-24T00:48:52.583Z,87.09
2018-04-24T00:51:21.620Z,87.06
2018-04-24T00:53:49.877Z,88.76
2018-04-24T00:56:18.136Z,88.48
2018-04-24T00:58:47.156Z,87.35
2018-04-24T01:01:15.406Z,87.02
2018-04-24T01:03:43.662Z,86.22
2018-04-24T01:06:11.925Z,87.56
2018-04-24T01:08:40.185Z,87.94
2018-04-24T01:11:08.443Z,86.76
2018-04-24T01:13:37.475Z,85.04
2018-04-24T01:16:05.727Z,85.52
2018-04-24T01:18:33.995Z,84.38
2018-04-24T01:21:03.011Z,84.75
2018-04-24T01:23:31.270Z,86.42
2018-04-24T01:26:00.287Z,85.72
2018-04-24T01:28:28.551Z,84.63
2018-04-24T01:30:57.576Z,85.35
2018-04-24T01:33:25.851Z,84.04
2018-04-24T01:35:54.103Z,83.66
2018-04-24T01:38:22.363Z,83.98
2018-04-24T01:40:50.610Z,84.37
2018-04-24T01:43:18.883Z,83.96
2018-04-24T01:45:47.136Z,84.43
2018-04-24T01:48:16.168Z,83.76
2018-04-24T01:50:44.419Z,82.96
2018-04-24T01:53:13.442Z,82.48
2018-04-24T01:55:41.859Z,82.84
2018-04-24T01:58:10.110Z,82.69
2018-04-24T02:00:38.363Z,84.11
2018-04-24T02:03:07.386Z,84.27
2018-04-24T02:05:35.637Z,82.96
2018-04-24T02:08:04.665Z,83.73
2018-04-24T02:10:32.928Z,83.07
2018-04-24T02:13:01.195Z,83.89
2018-04-24T02:15:30.214Z,84.48
2018-04-24T02:17:58.811Z,84.09
2018-04-24T02:20:27.065Z,85.09
2018-04-24T02:22:56.095Z,85.00
2018-04-24T02:25:24.349Z,84.90
2018-04-24T02:27:52.607Z,85.38
2018-04-24T02:30:21.623Z,85.41
2018-04-24T02:32:49.893Z,85.71
2018-04-24T02:35:18.911Z,85.43
2018-04-24T02:37:47.179Z,86.14
2018-04-24T02:40:16.199Z,86.58
2018-04-24T02:42:44.458Z,87.39
2018-04-24T02:45:12.714Z,86.20
2018-04-24T02:47:40.971Z,86.47
2018-04-24T02:50:09.231Z,86.02
2018-04-24T02:52:37.487Z,86.68
2018-04-24T02:55:05.760Z,87.40
2018-04-24T02:57:36.031Z,86.20
2018-04-24T03:00:04.279Z,84.28
2018-04-24T03:02:32.531Z,84.96
2018-04-24T03:05:01.568Z,85.55
2018-04-24T03:07:29.819Z,85.10
2018-04-24T03:09:58.848Z,85.00
2018-04-24T03:12:27.099Z,84.36
2018-04-24T03:14:56.129Z,83.84
2018-04-24T03:17:24.379Z,84.98
2018-04-24T03:19:53.395Z,84.72
2018-04-24T03:22:21.654Z,84.91
2018-04-24T03:24:50.678Z,85.75
2018-04-24T03:27:18.930Z,85.98
2018-04-24T03:29:47.959Z,86.31
2018-04-24T03:32:16.207Z,86.68
2018-04-24T03:34:45.235Z,86.13
2018-04-24T03:37:13.494Z,85.93
2018-04-24T03:39:42.513Z,86.46
2018-04-24T03:42:10.788Z,86.93
2018-04-24T03:44:39.035Z,87.46
2018-04-24T03:47:07.279Z,87.65
2018-04-24T03:49:35.550Z,87.37
2018-04-24T03:52:03.806Z,88.71
2018-04-24T03:54:32.070Z,87.28
2018-04-24T03:57:00.327Z,86.97
2018-04-24T03:59:28.588Z,87.23
2018-04-24T04:01:56.843Z,86.12
2018-04-24T04:04:25.110Z,85.92
2018-04-24T04:06:53.364Z,86.05
2018-04-24T04:09:22.387Z,86.82
2018-04-24T04:11:51.559Z,86.36
2018-04-24T04:14:20.583Z,85.62
2018-04-24T04:16:51.131Z,85.70
2018-04-24T04:19:37.892Z,87.08
2018-04-24T04:22:24.865Z,87.16
2018-04-24T04:24:53.092Z,87.88
2018-04-24T04:27:22.106Z,88.81
2018-04-24T04:29:50.366Z,87.22
2018-04-24T04:32:19.383Z,86.41
2018-04-24T04:34:47.643Z,86.24
2018-04-24T04:37:16.712Z,86.39
2018-04-24T04:39:44.975Z,87.03
2018-04-24T04:42:13.231Z,87.85
2018-04-24T04:44:41.495Z,88.20
2018-04-24T04:47:09.743Z,88.07
2018-04-24T04:49:38.013Z,88.42
2018-04-24T04:52:06.271Z,87.04
2018-04-24T04:54:34.551Z,86.65
2018-04-24T04:57:02.802Z,87.29
2018-04-24T04:59:31.071Z,85.86
2018-04-24T05:02:00.090Z,85.39
2018-04-24T05:04:28.338Z,85.56
2018-04-24T05:06:57.371Z,85.26
2018-04-24T05:09:25.645Z,84.53
2018-04-24T05:11:54.718Z,84.47
2018-04-24T05:14:22.915Z,83.87
2018-04-24T05:16:51.170Z,83.81
2018-04-24T05:19:20.323Z,81.83
2018-04-24T05:21:48.593Z,80.71
2018-04-24T05:24:16.843Z,78.52
2018-04-24T05:26:45.870Z,78.59
2018-04-24T05:29:14.119Z,79.08
2018-04-24T05:31:43.147Z,79.12
2018-04-24T05:34:11.411Z,78.39
2018-04-24T05:36:39.676Z,78.60
2018-04-24T05:39:08.691Z,78.49
2018-04-24T05:41:36.954Z,77.43
2018-04-24T05:44:05.896Z,74.45
2018-04-24T05:46:34.161Z,74.25
2018-04-24T05:49:02.482Z,74.98
2018-04-24T05:51:30.736Z,75.41
2018-04-24T05:53:58.987Z,73.49
2018-04-24T05:56:27.257Z,65.27
2018-04-24T05:58:56.271Z,63.52
2018-04-24T06:01:25.318Z,64.69
2018-04-24T06:03:53.586Z,64.65
2018-04-24T06:06:21.835Z,62.57
2018-04-24T06:08:50.115Z,56.54
2018-04-24T06:11:18.378Z,57.46
2018-04-24T06:13:46.627Z,55.10
2018-04-24T06:16:14.895Z,48.13
2018-04-24T06:18:43.146Z,40.39
2018-04-24T06:21:11.423Z,39.46
2018-04-24T06:23:39.678Z,41.32
2018-04-24T06:26:08.710Z,49.24
2018-04-24T06:28:37.036Z,44.55
2018-04-24T06:31:05.227Z,42.39
2018-04-24T06:33:34.239Z,40.14
2018-04-24T06:36:02.601Z,34.25
2018-04-24T06:38:32.333Z,35.27
2018-04-24T06:41:01.347Z,39.10
2018-04-24T06:43:29.611Z,40.86
2018-04-24T06:45:57.865Z,41.00
2018-04-24T06:48:26.900Z,35.34
2018-04-24T06:50:55.918Z,35.72
2018-04-24T06:53:24.183Z,39.94
2018-04-24T06:55:52.444Z,42.08
2018-04-24T06:58:21.476Z,42.30
2018-04-24T07:00:49.792Z,40.82
2018-04-24T07:03:17.998Z,37.72
2018-04-24T07:05:47.022Z,37.87
2018-04-24T07:08:15.313Z,35.39
2018-04-24T07:10:43.592Z,34.67
2018-04-24T07:13:12.897Z,36.11
2018-04-24T07:15:41.151Z,33.21
2018-04-24T07:18:09.419Z,31.93
2018-04-24T07:20:38.418Z,31.09
2018-04-24T07:23:07.446Z,29.59
2018-04-24T07:25:35.702Z,27.60
2018-04-24T07:28:04.723Z,31.51
2018-04-24T07:30:33.000Z,32.51
2018-04-24T07:33:01.310Z,31.57
2018-04-24T07:35:29.514Z,30.73
2018-04-24T07:37:57.780Z,38.49
2018-04-24T07:40:26.032Z,38.03
2018-04-24T07:42:54.304Z,38.00
2018-04-24T07:45:22.559Z,34.73
2018-04-24T07:47:50.827Z,38.18
2018-04-24T07:50:19.855Z,45.96
2018-04-24T07:52:48.123Z,45.15
2018-04-24T07:55:16.375Z,41.79
2018-04-24T07:57:44.631Z,42.47
2018-04-24T08:00:12.901Z,43.05
2018-04-24T08:02:41.159Z,47.90
2018-04-24T08:05:09.439Z,39.68
2018-04-24T08:07:37.705Z,41.40
2018-04-24T08:10:06.799Z,35.08
2018-04-24T08:12:35.811Z,29.19
2018-04-24T08:15:04.079Z,28.13
2018-04-24T08:17:32.335Z,36.09
2018-04-24T08:20:00.605Z,33.52
2018-04-24T08:22:38.508Z,35.91
2018-04-24T08:25:06.762Z,34.13
2018-04-24T08:27:35.024Z,39.78
2018-04-24T08:30:03.292Z,36.82
2018-04-24T08:32:31.547Z,28.66
2018-04-24T08:35:00.579Z,29.27
2018-04-24T08:37:28.829Z,28.59
2018-04-24T08:39:57.892Z,28.98
2018-04-24T08:42:26.130Z,27.31
2018-04-24T08:44:54.390Z,33.68
2018-04-24T08:47:23.420Z,36.13
2018-04-24T08:49:51.677Z,33.11
2018-04-24T08:52:19.935Z,38.15
2018-04-24T08:54:48.218Z,30.78
2018-04-24T08:57:16.452Z,26.08
2018-04-24T08:59:44.708Z,26.06
2018-04-24T09:02:12.963Z,23.38
2018-04-24T09:04:43.639Z,26.51
2018-04-24T09:07:11.890Z,37.42
2018-04-24T09:09:40.918Z,32.98
2018-04-24T09:12:09.166Z,32.65
2018-04-24T09:14:38.203Z,34.04
2018-04-24T09:17:06.446Z,31.90
2018-04-24T09:19:34.718Z,34.39
2018-04-24T09:22:03.743Z,30.95
2018-04-24T09:24:32.002Z,29.57
2018-04-24T09:27:01.112Z,27.70
2018-04-24T09:29:29.286Z,23.37
2018-04-24T09:31:58.316Z,25.86
2018-04-24T09:34:26.566Z,28.31
2018-04-24T09:36:54.822Z,28.61
2018-04-24T09:39:23.843Z,34.75
2018-04-24T09:41:52.304Z,32.56
2018-04-24T09:44:20.551Z,27.18
2018-04-24T09:46:48.824Z,26.72
2018-04-24T09:49:17.076Z,28.05
2018-04-24T09:51:45.346Z,29.37
2018-04-24T09:54:14.584Z,31.90
2018-04-24T09:56:42.884Z,32.77
2018-04-24T09:59:11.108Z,28.44
2018-04-24T10:01:39.392Z,29.40
2018-04-24T10:04:07.642Z,24.97
2018-04-24T10:06:35.903Z,26.30
2018-04-24T10:09:04.155Z,25.40
2018-04-24T10:11:32.415Z,28.28
2018-04-24T10:14:00.667Z,28.77
2018-04-24T10:16:28.939Z,29.32
2018-04-24T10:18:57.191Z,33.30
2018-04-24T10:21:25.507Z,31.32
2018-04-24T10:23:53.779Z,32.07
2018-04-24T10:26:22.047Z,28.54
2018-04-24T10:28:50.303Z,31.25
2018-04-24T10:31:18.578Z,30.48
2018-04-24T10:33:46.837Z,28.30
2018-04-24T10:36:16.227Z,23.15
2018-04-24T10:38:45.263Z,24.30
2018-04-24T10:41:13.531Z,28.27
2018-04-24T10:43:41.785Z,26.42
2018-04-24T10:46:10.059Z,26.20
2018-04-24T10:48:38.300Z,25.68
2018-04-24T10:51:06.556Z,24.37
2018-04-24T10:53:34.818Z,23.87
2018-04-24T10:56:03.925Z,24.95
2018-04-24T10:58:32.098Z,25.11
2018-04-24T11:01:00.354Z,25.62
2018-04-24T11:03:28.635Z,22.37
2018-04-24T11:05:56.893Z,23.46
2018-04-24T11:08:25.153Z,22.77
2018-04-24T11:10:53.406Z,24.07
2018-04-24T11:13:21.682Z,23.06
2018-04-24T11:15:49.947Z,24.03
2018-04-24T11:18:18.678Z,23.51
2018-04-24T11:20:46.932Z,21.99
2018-04-24T11:23:15.198Z,22.38
2018-04-24T11:25:44.223Z,23.50
2018-04-24T11:28:12.491Z,22.84
2018-04-24T11:30:40.738Z,22.53
2018-04-24T11:33:09.027Z,21.51
2018-04-24T11:35:37.276Z,20.71
2018-04-24T11:38:05.540Z,21.59
2018-04-24T11:40:33.779Z,22.39
2018-04-24T11:43:02.817Z,22.28
2018-04-24T11:45:31.722Z,21.50
2018-04-24T11:47:59.983Z,18.83
2018-04-24T11:50:28.240Z,20.41
2018-04-24T11:52:57.262Z,21.67
2018-04-24T11:55:25.523Z,22.89
2018-04-24T11:57:54.551Z,23.00
2018-04-24T12:00:22.804Z,23.23
2018-04-24T12:02:51.083Z,22.16
2018-04-24T12:05:20.079Z,25.60
2018-04-24T12:07:49.126Z,23.38
2018-04-24T12:10:17.397Z,22.93
2018-04-24T12:12:45.657Z,19.92
2018-04-24T12:15:13.903Z,24.28
2018-04-24T12:17:42.928Z,21.70
2018-04-24T12:20:11.176Z,20.66
2018-04-24T12:22:40.204Z,22.58
2018-04-24T12:25:08.465Z,21.17
2018-04-24T12:27:37.496Z,20.57
2018-04-24T12:30:05.756Z,23.43
2018-04-24T12:32:34.025Z,20.06
2018-04-24T12:35:03.055Z,23.17
2018-04-24T12:37:31.314Z,19.23
2018-04-24T12:39:59.562Z,19.19
2018-04-24T12:42:27.808Z,21.25
2018-04-24T12:44:56.079Z,25.41
2018-04-24T12:47:24.332Z,26.60
2018-04-24T12:49:53.628Z,25.56
2018-04-24T12:52:22.637Z,28.53
2018-04-24T12:54:50.893Z,28.38
2018-04-24T12:57:19.929Z,27.29
2018-04-24T12:59:48.178Z,28.73
2018-04-24T13:02:17.196Z,28.16
2018-04-24T13:04:45.522Z,27.94
2018-04-24T13:07:14.478Z,28.62
2018-04-24T13:09:42.762Z,29.10
2018-04-24T13:12:11.002Z,28.72
2018-04-24T13:14:39.270Z,27.89
2018-04-24T13:17:07.542Z,28.54
2018-04-24T13:19:35.808Z,30.09
2018-04-24T13:22:04.071Z,28.29
2018-04-24T13:24:32.813Z,32.10
2018-04-24T13:27:01.059Z,33.24
2018-04-24T13:29:29.327Z,30.27
2018-04-24T13:31:57.586Z,27.78
2018-04-24T13:34:26.610Z,33.07
2018-04-24T13:36:54.864Z,31.34
2018-04-24T13:39:23.883Z,28.52
2018-04-24T13:41:52.242Z,28.57
2018-04-24T13:44:22.524Z,28.46
2018-04-24T13:46:50.763Z,27.51
2018-04-24T13:49:19.060Z,30.08
2018-04-24T13:51:47.306Z,30.52
2018-04-24T13:54:16.334Z,30.45
2018-04-24T13:56:45.432Z,28.84
2018-04-24T13:59:13.704Z,31.82
2018-04-24T14:01:41.954Z,27.38
2018-04-24T14:04:11.867Z,29.83
2018-04-24T14:06:40.878Z,31.13
2018-04-24T14:09:09.903Z,29.35
2018-04-24T14:11:38.163Z,31.66
2018-04-24T14:14:06.471Z,29.62
2018-04-24T14:16:34.722Z,31.29
2018-04-24T14:19:02.995Z,28.51
2018-04-24T14:21:32.051Z,31.83
2018-04-24T14:24:00.278Z,32.35
2018-04-24T14:26:29.299Z,31.82
2018-04-24T14:28:58.402Z,32.85
2018-04-24T14:31:26.655Z,30.53
2018-04-24T14:33:55.679Z,32.11
2018-04-24T14:36:25.290Z,33.56
2018-04-24T14:38:53.540Z,32.44
2018-04-24T14:41:22.567Z,31.22
2018-04-24T14:43:50.823Z,32.33
2018-04-24T14:46:19.847Z,29.46
2018-04-24T14:48:48.188Z,34.65
2018-04-24T14:51:16.383Z,31.05
2018-04-24T14:53:44.628Z,35.58
2018-04-24T14:56:12.894Z,35.07
2018-04-24T14:58:41.141Z,28.04
2018-04-24T15:01:09.417Z,30.67
2018-04-24T15:03:37.676Z,28.95
2018-04-24T15:06:06.699Z,31.88
2018-04-24T15:08:34.959Z,32.05
2018-04-24T15:11:03.997Z,31.93
2018-04-24T15:13:32.238Z,28.90
2018-04-24T15:16:00.495Z,32.26
2018-04-24T15:18:28.767Z,30.10
2018-04-24T15:20:57.032Z,30.02
2018-04-24T15:23:25.291Z,33.96
2018-04-24T15:25:53.543Z,30.73
2018-04-24T15:28:21.796Z,31.91
2018-04-24T15:30:50.059Z,31.52
2018-04-24T15:33:18.336Z,30.34
2018-04-24T15:35:46.595Z,32.05
2018-04-24T15:38:14.854Z,31.01
2018-04-24T15:40:43.114Z,30.45
2018-04-24T15:43:12.152Z,32.07
2018-04-24T15:45:40.411Z,30.19
2018-04-24T15:48:08.758Z,29.52
2018-04-24T15:50:37.688Z,31.64
2018-04-24T15:53:05.951Z,31.65
2018-04-24T15:55:34.975Z,30.84
2018-04-24T15:58:03.226Z,31.14
2018-04-24T16:00:32.260Z,32.87
2018-04-24T16:03:00.528Z,32.36
2018-04-24T16:05:28.801Z,31.92
2018-04-24T16:07:57.814Z,30.37
2018-04-24T16:10:26.078Z,33.73
2018-04-24T16:12:54.341Z,33.90
2018-04-24T16:15:23.366Z,32.13
2018-04-24T16:17:51.627Z,31.65
2018-04-24T16:20:20.643Z,34.04
2018-04-24T16:22:48.909Z,31.90
2018-04-24T16:25:17.794Z,32.98
2018-04-24T16:27:46.823Z,34.96
2018-04-24T16:30:15.080Z,32.83
2018-04-24T16:32:44.109Z,33.36
2018-04-24T16:35:12.358Z,32.72
2018-04-24T16:37:40.628Z,32.46
2018-04-24T16:40:09.651Z,34.04
2018-04-24T16:42:37.911Z,33.57
2018-04-24T16:45:06.942Z,34.05
2018-04-24T16:47:35.857Z,33.28
2018-04-24T16:50:04.107Z,35.40
2018-04-24T16:52:32.355Z,34.57
2018-04-24T16:55:01.384Z,35.02
2018-04-24T16:57:30.257Z,35.24
2018-04-24T16:59:59.282Z,34.56
2018-04-24T17:02:27.558Z,35.58
2018-04-24T17:04:55.813Z,34.97
2018-04-24T17:07:24.847Z,35.82
2018-04-24T17:09:53.122Z,35.34
2018-04-24T17:12:21.376Z,37.39
2018-04-24T17:14:50.405Z,35.77
2018-04-24T17:17:18.688Z,38.42
2018-04-24T17:19:46.962Z,37.53
2018-04-24T17:22:15.339Z,37.17
2018-04-24T17:24:43.591Z,38.16
2018-04-24T17:27:12.614Z,36.51
2018-04-24T17:29:41.706Z,38.28
2018-04-24T17:32:09.977Z,38.17
2018-04-24T17:34:38.263Z,37.18
2018-04-24T17:37:06.541Z,38.73
2018-04-24T17:39:37.967Z,37.90
2018-04-24T17:42:06.233Z,39.66
2018-04-24T17:44:34.483Z,37.84
2018-04-24T17:47:02.744Z,40.58
2018-04-24T17:49:31.010Z,39.96
2018-04-24T17:52:00.048Z,38.81
2018-04-24T17:54:28.295Z,39.96
2018-04-24T17:56:56.558Z,39.84
2018-04-24T17:59:25.573Z,40.62
2018-04-24T18:01:55.082Z,42.61
2018-04-24T18:04:23.562Z,47.90
2018-04-24T18:06:51.847Z,47.30
2018-04-24T18:09:20.117Z,46.65
2018-04-24T18:11:49.143Z,45.73
2018-04-24T18:14:17.392Z,48.57
2018-04-24T18:16:46.428Z,48.03
2018-04-24T18:19:14.688Z,51.31
2018-04-24T18:21:42.959Z,49.29
2018-04-24T18:24:11.988Z,50.00
2018-04-24T18:26:40.239Z,52.67
2018-04-24T18:29:09.266Z,51.59
2018-04-24T18:31:37.520Z,50.97
2018-04-24T18:34:06.555Z,50.40
2018-04-24T18:36:34.815Z,51.86
2018-04-24T18:39:03.082Z,53.54
2018-04-24T18:41:31.344Z,57.81
2018-04-24T18:44:00.994Z,57.04
2018-04-24T18:46:29.246Z,60.77
2018-04-24T18:48:58.275Z,63.58
2018-04-24T18:51:26.532Z,59.90
2018-04-24T18:53:54.799Z,61.73
2018-04-24T18:56:23.824Z,63.28
2018-04-24T18:58:52.088Z,60.87
2018-04-24T19:01:21.099Z,63.19
2018-04-24T19:03:49.377Z,61.38
2018-04-24T19:06:17.619Z,64.13
2018-04-24T19:08:45.901Z,63.57
2018-04-24T19:11:14.152Z,60.61
2018-04-24T19:13:42.413Z,60.23
2018-04-24T19:16:11.904Z,63.31
2018-04-24T19:18:45.726Z,64.32
2018-04-24T19:21:13.972Z,63.12
2018-04-24T19:23:43.017Z,64.06
2018-04-24T19:26:11.256Z,61.44
2018-04-24T19:28:40.309Z,64.29
2018-04-24T19:31:13.824Z,63.57
2018-04-24T19:33:42.077Z,66.76
2018-04-24T19:36:10.339Z,63.84
2018-04-24T19:38:38.602Z,61.60
2018-04-24T19:41:12.325Z,64.84
2018-04-24T19:43:40.524Z,63.42
2018-04-24T19:46:08.776Z,67.20
2018-04-24T19:48:42.430Z,66.89
2018-04-24T19:51:10.680Z,67.31
2018-04-24T19:53:38.944Z,66.81
2018-04-24T19:56:07.191Z,66.63
2018-04-24T19:58:35.787Z,69.66
2018-04-24T20:01:03.988Z,67.38
2018-04-24T20:03:32.271Z,67.25
2018-04-24T20:06:00.523Z,66.38
2018-04-24T20:08:29.556Z,66.37
2018-04-24T20:10:57.810Z,65.78
2018-04-24T20:13:26.839Z,65.75
2018-04-24T20:15:55.097Z,68.60
2018-04-24T20:18:23.398Z,68.38
2018-04-24T20:20:51.615Z,71.08
2018-04-24T20:23:19.872Z,69.02
2018-04-24T20:25:48.127Z,70.80
2018-04-24T20:28:16.389Z,71.76
2018-04-24T20:30:45.435Z,72.72
2018-04-24T20:33:13.694Z,70.63
2018-04-24T20:35:41.959Z,70.95
2018-04-24T20:38:10.218Z,73.30
2018-04-24T20:40:39.256Z,71.22
2018-04-24T20:43:07.506Z,72.96
2018-04-24T20:45:36.531Z,72.79
2018-04-24T20:48:04.801Z,71.48
2018-04-24T20:50:33.067Z,74.48
2018-04-24T20:53:02.079Z,73.79
2018-04-24T20:55:30.373Z,73.78
2018-04-24T20:57:58.631Z,74.81
2018-04-24T21:00:26.907Z,73.57
2018-04-24T21:02:55.926Z,73.38
2018-04-24T21:05:24.203Z,76.21
2018-04-24T21:07:52.449Z,75.36
2018-04-24T21:10:21.485Z,74.49
2018-04-24T21:12:49.742Z,74.53
2018-04-24T21:15:18.251Z,73.82
2018-04-24T21:17:46.506Z,74.22
2018-04-24T21:20:15.528Z,75.97
2018-04-24T21:22:43.797Z,77.55
2018-04-24T21:25:12.077Z,77.19
2018-04-24T21:27:40.311Z,77.59
2018-04-24T21:30:08.583Z,75.98
2018-04-24T21:32:36.830Z,76.76
2018-04-24T21:35:05.144Z,76.73
2018-04-24T21:37:34.596Z,75.80
2018-04-24T21:40:03.996Z,77.27
2018-04-24T21:42:33.013Z,77.48
2018-04-24T21:45:01.283Z,77.10
2018-04-24T21:47:29.537Z,78.19
2018-04-24T21:49:57.803Z,77.07
2018-04-24T21:52:26.464Z,78.49
2018-04-24T21:54:54.715Z,77.46
2018-04-24T21:57:22.971Z,78.79
2018-04-24T21:59:51.237Z,79.35
2018-04-24T22:02:19.482Z,77.88
2018-04-24T22:04:47.725Z,80.35
2018-04-24T22:07:16.757Z,78.75
2018-04-24T22:09:44.995Z,79.01
2018-04-24T22:12:14.279Z,79.22
2018-04-24T22:14:42.528Z,79.74
2018-04-24T22:17:10.771Z,80.84
2018-04-24T22:19:39.853Z,78.92
2018-04-24T22:22:08.247Z,80.02
2018-04-24T22:24:37.259Z,80.18
2018-04-24T22:27:05.547Z,79.49
2018-04-24T22:29:33.769Z,80.27
2018-04-24T22:32:02.030Z,81.81
2018-04-24T22:34:30.275Z,82.32
2018-04-24T22:36:58.783Z,78.87
2018-04-24T22:39:27.028Z,80.07
2018-04-24T22:41:56.040Z,81.78
2018-04-24T22:44:24.296Z,82.34
2018-04-24T22:46:52.553Z,82.75
2018-04-24T22:49:20.800Z,82.10
2018-04-24T22:51:49.055Z,81.58
2018-04-24T22:54:18.080Z,81.23
2018-04-24T22:56:46.352Z,83.81
2018-04-24T22:59:14.591Z,83.44
2018-04-24T23:01:42.850Z,81.24
2018-04-24T23:04:11.087Z,82.97
2018-04-24T23:06:39.342Z,82.40
2018-04-24T23:09:08.347Z,81.88
2018-04-24T23:11:54.941Z,81.92
2018-04-24T23:14:41.440Z,80.72
2018-04-24T23:17:28.035Z,82.07
2018-04-24T23:20:14.591Z,81.81
2018-04-24T23:22:42.850Z,79.92
2018-04-24T23:25:11.086Z,80.71
2018-04-24T23:27:40.107Z,82.49
2018-04-24T23:30:08.351Z,83.42
2018-04-24T23:32:36.612Z,83.17
2018-04-24T23:35:04.853Z,83.87
2018-04-24T23:37:33.102Z,83.50
2018-04-24T23:40:01.413Z,82.38
2018-04-24T23:42:29.603Z,83.09
2018-04-24T23:44:57.852Z,83.39
2018-04-24T23:47:26.872Z,84.23
2018-04-24T23:49:55.115Z,83.95
2018-04-24T23:52:23.397Z,83.23
2018-04-24T23:54:51.638Z,84.25
2018-04-24T23:57:19.897Z,84.95
2018-04-24T23:59:48.138Z,84.81
